Cataguases, Brazil
Current Conditions -  °F | °C
As of 8:00 AM on Monday 20 Oct 2014 (Local Time) from SBJF Reporting Station
Rain Showers Rain Showers  
Wind Chill: 68°   Ceiling: 7000
Heat Index: 68°   Visibility: 5mi
Dew Point: 64°   Wind: 9mph
Humidity: 88%   Direction: 330°NNW
Pressure: 30.12"   Gusts: NA
Location:  21.39°S, 42.7°W
Report Text: SBJF 201100Z 33008KT 8000 VCSH SCT010 BKN070 20/18 Q1020
Loading
Personal Weather Stations






























Interactive Weather Map
Tropical Storm Tracking
New forecast layout! Learn more

10-Day Weather Forecast

Advertisements
Track Severe Weather on mobile